sensor_id;sensor_type;location;lat;lon;timestamp;P1;durP1;ratioP1;P2;durP2;ratioP2
65558;SDS011;52203;51.998;5.140;2024-02-23T00:00:12;1.13;;;0.50;;
65558;SDS011;52203;51.998;5.140;2024-02-23T00:02:38;0.60;;;0.40;;
65558;SDS011;52203;51.998;5.140;2024-02-23T00:05:04;1.42;;;0.40;;
65558;SDS011;52203;51.998;5.140;2024-02-23T00:07:29;0.70;;;0.50;;
65558;SDS011;52203;51.998;5.140;2024-02-23T00:09:55;1.60;;;0.60;;
65558;SDS011;52203;51.998;5.140;2024-02-23T00:12:20;2.95;;;0.50;;
65558;SDS011;52203;51.998;5.140;2024-02-23T00:14:46;2.35;;;0.80;;
65558;SDS011;52203;51.998;5.140;2024-02-23T00:17:12;1.05;;;0.40;;
65558;SDS011;52203;51.998;5.140;2024-02-23T00:19:37;1.25;;;0.50;;
65558;SDS011;52203;51.998;5.140;2024-02-23T00:22:05;0.95;;;0.50;;
65558;SDS011;52203;51.998;5.140;2024-02-23T00:24:31;0.50;;;0.40;;
65558;SDS011;52203;51.998;5.140;2024-02-23T00:26:56;1.60;;;0.65;;
65558;SDS011;52203;51.998;5.140;2024-02-23T00:29:22;1.13;;;0.50;;
65558;SDS011;52203;51.998;5.140;2024-02-23T00:31:48;1.10;;;0.57;;
65558;SDS011;52203;51.998;5.140;2024-02-23T00:34:14;3.55;;;0.73;;
65558;SDS011;52203;51.998;5.140;2024-02-23T00:36:40;1.25;;;0.57;;
65558;SDS011;52203;51.998;5.140;2024-02-23T00:39:07;1.23;;;0.50;;
65558;SDS011;52203;51.998;5.140;2024-02-23T00:41:33;1.70;;;0.50;;
65558;SDS011;52203;51.998;5.140;2024-02-23T00:44:00;0.82;;;0.52;;
65558;SDS011;52203;51.998;5.140;2024-02-23T00:46:25;1.10;;;0.40;;
65558;SDS011;52203;51.998;5.140;2024-02-23T00:48:51;1.50;;;0.60;;
65558;SDS011;52203;51.998;5.140;2024-02-23T00:51:16;2.80;;;0.57;;
65558;SDS011;52203;51.998;5.140;2024-02-23T00:53:42;0.95;;;0.50;;
65558;SDS011;52203;51.998;5.140;2024-02-23T00:56:08;2.30;;;0.68;;
65558;SDS011;52203;51.998;5.140;2024-02-23T00:58:34;0.52;;;0.45;;
65558;SDS011;52203;51.998;5.140;2024-02-23T01:01:00;0.85;;;0.50;;
65558;SDS011;52203;51.998;5.140;2024-02-23T01:03:25;3.10;;;0.60;;
65558;SDS011;52203;51.998;5.140;2024-02-23T01:05:51;1.58;;;0.68;;
65558;SDS011;52203;51.998;5.140;2024-02-23T01:08:17;1.58;;;0.95;;
65558;SDS011;52203;51.998;5.140;2024-02-23T01:10:42;2.22;;;0.60;;
65558;SDS011;52203;51.998;5.140;2024-02-23T01:13:08;1.88;;;0.50;;
65558;SDS011;52203;51.998;5.140;2024-02-23T01:15:34;1.98;;;0.45;;
65558;SDS011;52203;51.998;5.140;2024-02-23T01:17:59;1.10;;;0.50;;
65558;SDS011;52203;51.998;5.140;2024-02-23T01:20:25;1.67;;;0.43;;
65558;SDS011;52203;51.998;5.140;2024-02-23T01:22:51;1.15;;;0.45;;
65558;SDS011;52203;51.998;5.140;2024-02-23T01:25:16;2.03;;;0.57;;
65558;SDS011;52203;51.998;5.140;2024-02-23T01:27:42;0.75;;;0.50;;
65558;SDS011;52203;51.998;5.140;2024-02-23T01:30:09;1.27;;;0.50;;
65558;SDS011;52203;51.998;5.140;2024-02-23T01:32:35;1.05;;;0.47;;
65558;SDS011;52203;51.998;5.140;2024-02-23T01:35:03;0.85;;;0.50;;
65558;SDS011;52203;51.998;5.140;2024-02-23T01:37:29;1.55;;;0.52;;
65558;SDS011;52203;51.998;5.140;2024-02-23T01:39:55;1.17;;;0.50;;
65558;SDS011;52203;51.998;5.140;2024-02-23T01:42:21;0.88;;;0.45;;
65558;SDS011;52203;51.998;5.140;2024-02-23T01:44:47;1.08;;;0.55;;
65558;SDS011;52203;51.998;5.140;2024-02-23T01:47:12;1.67;;;0.80;;
65558;SDS011;52203;51.998;5.140;2024-02-23T01:49:38;1.60;;;0.50;;
65558;SDS011;52203;51.998;5.140;2024-02-23T01:52:03;1.48;;;0.50;;
65558;SDS011;52203;51.998;5.140;2024-02-23T01:54:30;1.55;;;0.50;;
65558;SDS011;52203;51.998;5.140;2024-02-23T01:56:57;0.52;;;0.40;;
65558;SDS011;52203;51.998;5.140;2024-02-23T01:59:23;1.38;;;0.50;;
65558;SDS011;52203;51.998;5.140;2024-02-23T02:01:52;0.80;;;0.40;;
65558;SDS011;52203;51.998;5.140;2024-02-23T02:04:17;1.85;;;0.55;;
65558;SDS011;52203;51.998;5.140;2024-02-23T02:06:44;0.85;;;0.43;;
65558;SDS011;52203;51.998;5.140;2024-02-23T02:09:11;1.30;;;0.60;;
65558;SDS011;52203;51.998;5.140;2024-02-23T02:11:44;1.05;;;0.60;;
65558;SDS011;52203;51.998;5.140;2024-02-23T02:14:13;0.85;;;0.50;;
65558;SDS011;52203;51.998;5.140;2024-02-23T02:16:39;1.25;;;0.47;;
65558;SDS011;52203;51.998;5.140;2024-02-23T02:19:05;1.50;;;0.50;;
65558;SDS011;52203;51.998;5.140;2024-02-23T02:21:31;0.70;;;0.47;;
65558;SDS011;52203;51.998;5.140;2024-02-23T02:24:00;1.40;;;0.75;;
65558;SDS011;52203;51.998;5.140;2024-02-23T02:26:25;1.00;;;0.60;;
65558;SDS011;52203;51.998;5.140;2024-02-23T02:28:51;1.45;;;0.50;;
65558;SDS011;52203;51.998;5.140;2024-02-23T02:31:17;1.85;;;0.50;;
65558;SDS011;52203;51.998;5.140;2024-02-23T02:33:43;2.42;;;0.50;;
65558;SDS011;52203;51.998;5.140;2024-02-23T02:36:09;0.80;;;0.50;;
65558;SDS011;52203;51.998;5.140;2024-02-23T02:38:35;0.55;;;0.40;;
65558;SDS011;52203;51.998;5.140;2024-02-23T02:41:00;0.85;;;0.50;;
65558;SDS011;52203;51.998;5.140;2024-02-23T02:43:27;0.88;;;0.50;;
65558;SDS011;52203;51.998;5.140;2024-02-23T02:45:55;1.33;;;0.47;;
65558;SDS011;52203;51.998;5.140;2024-02-23T02:48:21;1.33;;;0.57;;
65558;SDS011;52203;51.998;5.140;2024-02-23T02:50:47;1.63;;;0.60;;
65558;SDS011;52203;51.998;5.140;2024-02-23T02:53:14;2.30;;;0.70;;
65558;SDS011;52203;51.998;5.140;2024-02-23T02:55:44;2.80;;;0.80;;
65558;SDS011;52203;51.998;5.140;2024-02-23T02:58:11;1.20;;;0.60;;
65558;SDS011;52203;51.998;5.140;2024-02-23T03:00:37;1.23;;;0.55;;
65558;SDS011;52203;51.998;5.140;2024-02-23T03:03:03;1.08;;;0.50;;
65558;SDS011;52203;51.998;5.140;2024-02-23T03:05:29;0.98;;;0.40;;
65558;SDS011;52203;51.998;5.140;2024-02-23T03:07:55;1.67;;;0.60;;
65558;SDS011;52203;51.998;5.140;2024-02-23T03:10:20;0.40;;;0.40;;
65558;SDS011;52203;51.998;5.140;2024-02-23T03:12:46;1.88;;;0.60;;
65558;SDS011;52203;51.998;5.140;2024-02-23T03:15:12;3.05;;;0.60;;
65558;SDS011;52203;51.998;5.140;2024-02-23T03:17:37;2.20;;;0.70;;
65558;SDS011;52203;51.998;5.140;2024-02-23T03:20:03;1.98;;;0.60;;
65558;SDS011;52203;51.998;5.140;2024-02-23T03:22:36;1.52;;;0.68;;
65558;SDS011;52203;51.998;5.140;2024-02-23T03:25:03;1.13;;;0.50;;
65558;SDS011;52203;51.998;5.140;2024-02-23T03:27:35;0.75;;;0.50;;
65558;SDS011;52203;51.998;5.140;2024-02-23T03:30:04;0.80;;;0.60;;
65558;SDS011;52203;51.998;5.140;2024-02-23T03:32:33;1.35;;;0.60;;
65558;SDS011;52203;51.998;5.140;2024-02-23T03:35:05;2.22;;;0.60;;
65558;SDS011;52203;51.998;5.140;2024-02-23T03:37:31;0.82;;;0.50;;
65558;SDS011;52203;51.998;5.140;2024-02-23T03:39:57;1.40;;;0.50;;
65558;SDS011;52203;51.998;5.140;2024-02-23T03:42:24;2.08;;;0.52;;
65558;SDS011;52203;51.998;5.140;2024-02-23T03:44:52;1.48;;;0.52;;
65558;SDS011;52203;51.998;5.140;2024-02-23T03:47:18;0.85;;;0.50;;
65558;SDS011;52203;51.998;5.140;2024-02-23T03:49:44;0.60;;;0.40;;
65558;SDS011;52203;51.998;5.140;2024-02-23T03:52:09;2.22;;;0.68;;
65558;SDS011;52203;51.998;5.140;2024-02-23T03:54:35;1.75;;;0.60;;
65558;SDS011;52203;51.998;5.140;2024-02-23T03:57:02;1.42;;;0.50;;
65558;SDS011;52203;51.998;5.140;2024-02-23T03:59:28;2.78;;;0.70;;
65558;SDS011;52203;51.998;5.140;2024-02-23T04:01:54;1.38;;;0.52;;
65558;SDS011;52203;51.998;5.140;2024-02-23T04:04:19;1.73;;;0.60;;
65558;SDS011;52203;51.998;5.140;2024-02-23T04:06:45;1.70;;;0.70;;
65558;SDS011;52203;51.998;5.140;2024-02-23T04:09:11;0.68;;;0.40;;
65558;SDS011;52203;51.998;5.140;2024-02-23T04:11:37;1.50;;;0.60;;
65558;SDS011;52203;51.998;5.140;2024-02-23T04:14:02;1.40;;;0.60;;
65558;SDS011;52203;51.998;5.140;2024-02-23T04:16:30;1.48;;;0.60;;
65558;SDS011;52203;51.998;5.140;2024-02-23T04:18:57;2.53;;;0.50;;
65558;SDS011;52203;51.998;5.140;2024-02-23T04:21:27;3.20;;;0.70;;
65558;SDS011;52203;51.998;5.140;2024-02-23T04:23:53;1.63;;;0.40;;
65558;SDS011;52203;51.998;5.140;2024-02-23T04:26:18;1.52;;;0.60;;
65558;SDS011;52203;51.998;5.140;2024-02-23T04:28:49;0.80;;;0.47;;
65558;SDS011;52203;51.998;5.140;2024-02-23T04:31:14;1.42;;;0.52;;
65558;SDS011;52203;51.998;5.140;2024-02-23T04:33:40;1.27;;;0.47;;
65558;SDS011;52203;51.998;5.140;2024-02-23T04:36:06;1.45;;;0.50;;
65558;SDS011;52203;51.998;5.140;2024-02-23T04:38:32;0.82;;;0.45;;
65558;SDS011;52203;51.998;5.140;2024-02-23T04:41:01;1.42;;;0.50;;
65558;SDS011;52203;51.998;5.140;2024-02-23T04:43:28;1.20;;;0.52;;
65558;SDS011;52203;51.998;5.140;2024-02-23T04:45:53;2.67;;;0.60;;
65558;SDS011;52203;51.998;5.140;2024-02-23T04:48:19;1.15;;;0.55;;
65558;SDS011;52203;51.998;5.140;2024-02-23T04:50:44;1.27;;;0.65;;
65558;SDS011;52203;51.998;5.140;2024-02-23T04:53:10;0.40;;;0.40;;
65558;SDS011;52203;51.998;5.140;2024-02-23T04:55:38;2.10;;;0.50;;
65558;SDS011;52203;51.998;5.140;2024-02-23T04:58:03;2.58;;;0.50;;
65558;SDS011;52203;51.998;5.140;2024-02-23T05:00:29;1.73;;;0.60;;
65558;SDS011;52203;51.998;5.140;2024-02-23T05:03:01;0.95;;;0.50;;
65558;SDS011;52203;51.998;5.140;2024-02-23T05:05:29;1.95;;;0.50;;
65558;SDS011;52203;51.998;5.140;2024-02-23T05:07:55;1.77;;;0.70;;
65558;SDS011;52203;51.998;5.140;2024-02-23T05:10:21;1.63;;;0.70;;
65558;SDS011;52203;51.998;5.140;2024-02-23T05:12:47;1.60;;;0.60;;
65558;SDS011;52203;51.998;5.140;2024-02-23T05:15:13;1.73;;;0.60;;
65558;SDS011;52203;51.998;5.140;2024-02-23T05:17:41;1.40;;;0.63;;
65558;SDS011;52203;51.998;5.140;2024-02-23T05:20:07;2.20;;;0.50;;
65558;SDS011;52203;51.998;5.140;2024-02-23T05:22:37;1.85;;;0.63;;
65558;SDS011;52203;51.998;5.140;2024-02-23T05:25:03;1.23;;;0.50;;
65558;SDS011;52203;51.998;5.140;2024-02-23T05:27:30;1.20;;;0.80;;
65558;SDS011;52203;51.998;5.140;2024-02-23T05:29:56;2.15;;;0.60;;
65558;SDS011;52203;51.998;5.140;2024-02-23T05:32:26;2.85;;;0.80;;
65558;SDS011;52203;51.998;5.140;2024-02-23T05:34:51;2.13;;;0.70;;
65558;SDS011;52203;51.998;5.140;2024-02-23T05:37:19;2.47;;;0.50;;
65558;SDS011;52203;51.998;5.140;2024-02-23T05:39:45;1.33;;;0.60;;
65558;SDS011;52203;51.998;5.140;2024-02-23T05:42:11;1.10;;;0.60;;
65558;SDS011;52203;51.998;5.140;2024-02-23T05:44:43;2.30;;;0.50;;
65558;SDS011;52203;51.998;5.140;2024-02-23T05:47:10;1.80;;;0.50;;
65558;SDS011;52203;51.998;5.140;2024-02-23T05:49:36;1.40;;;0.52;;
65558;SDS011;52203;51.998;5.140;2024-02-23T05:52:04;1.20;;;0.57;;
65558;SDS011;52203;51.998;5.140;2024-02-23T05:54:30;1.38;;;0.65;;
65558;SDS011;52203;51.998;5.140;2024-02-23T05:56:55;0.93;;;0.50;;
65558;SDS011;52203;51.998;5.140;2024-02-23T05:59:21;0.65;;;0.60;;
65558;SDS011;52203;51.998;5.140;2024-02-23T06:01:46;1.40;;;0.57;;
65558;SDS011;52203;51.998;5.140;2024-02-23T06:04:12;1.63;;;0.50;;
65558;SDS011;52203;51.998;5.140;2024-02-23T06:06:41;1.10;;;0.50;;
65558;SDS011;52203;51.998;5.140;2024-02-23T06:09:07;1.35;;;0.50;;
65558;SDS011;52203;51.998;5.140;2024-02-23T06:11:33;1.92;;;0.70;;
65558;SDS011;52203;51.998;5.140;2024-02-23T06:13:59;2.80;;;0.60;;
65558;SDS011;52203;51.998;5.140;2024-02-23T06:16:24;2.38;;;0.60;;
65558;SDS011;52203;51.998;5.140;2024-02-23T06:18:50;1.13;;;0.50;;
65558;SDS011;52203;51.998;5.140;2024-02-23T06:21:16;2.67;;;0.70;;
65558;SDS011;52203;51.998;5.140;2024-02-23T06:23:45;0.75;;;0.60;;
65558;SDS011;52203;51.998;5.140;2024-02-23T06:26:11;1.67;;;0.50;;
65558;SDS011;52203;51.998;5.140;2024-02-23T06:28:37;1.95;;;0.80;;
65558;SDS011;52203;51.998;5.140;2024-02-23T06:31:06;1.95;;;0.60;;
65558;SDS011;52203;51.998;5.140;2024-02-23T06:33:32;2.15;;;0.77;;
65558;SDS011;52203;51.998;5.140;2024-02-23T06:35:58;2.08;;;0.60;;
65558;SDS011;52203;51.998;5.140;2024-02-23T06:38:23;1.83;;;0.63;;
65558;SDS011;52203;51.998;5.140;2024-02-23T06:40:49;1.63;;;0.60;;
65558;SDS011;52203;51.998;5.140;2024-02-23T06:43:15;1.02;;;0.50;;
65558;SDS011;52203;51.998;5.140;2024-02-23T06:45:40;2.25;;;0.75;;
65558;SDS011;52203;51.998;5.140;2024-02-23T06:48:06;0.60;;;0.50;;
65558;SDS011;52203;51.998;5.140;2024-02-23T06:50:32;1.80;;;0.60;;
65558;SDS011;52203;51.998;5.140;2024-02-23T06:52:57;1.35;;;0.63;;
65558;SDS011;52203;51.998;5.140;2024-02-23T06:55:23;1.55;;;0.60;;
65558;SDS011;52203;51.998;5.140;2024-02-23T06:57:49;0.80;;;0.52;;
65558;SDS011;52203;51.998;5.140;2024-02-23T07:00:14;2.88;;;0.60;;
65558;SDS011;52203;51.998;5.140;2024-02-23T07:02:40;1.45;;;0.63;;
65558;SDS011;52203;51.998;5.140;2024-02-23T07:05:06;1.83;;;0.80;;
65558;SDS011;52203;51.998;5.140;2024-02-23T07:07:32;1.17;;;0.60;;
65558;SDS011;52203;51.998;5.140;2024-02-23T07:09:59;2.40;;;0.60;;
65558;SDS011;52203;51.998;5.140;2024-02-23T07:12:25;2.60;;;0.70;;
65558;SDS011;52203;51.998;5.140;2024-02-23T07:14:53;1.42;;;0.50;;
65558;SDS011;52203;51.998;5.140;2024-02-23T07:17:22;0.60;;;0.50;;
65558;SDS011;52203;51.998;5.140;2024-02-23T07:19:47;1.38;;;0.60;;
65558;SDS011;52203;51.998;5.140;2024-02-23T07:22:13;1.75;;;0.50;;
65558;SDS011;52203;51.998;5.140;2024-02-23T07:24:41;3.22;;;0.85;;
65558;SDS011;52203;51.998;5.140;2024-02-23T07:27:07;2.00;;;0.60;;
65558;SDS011;52203;51.998;5.140;2024-02-23T07:29:33;1.77;;;0.57;;
65558;SDS011;52203;51.998;5.140;2024-02-23T07:31:58;3.28;;;0.60;;
65558;SDS011;52203;51.998;5.140;2024-02-23T07:34:24;2.92;;;0.60;;
65558;SDS011;52203;51.998;5.140;2024-02-23T07:36:53;0.68;;;0.47;;
65558;SDS011;52203;51.998;5.140;2024-02-23T07:39:19;2.28;;;0.60;;
65558;SDS011;52203;51.998;5.140;2024-02-23T07:41:45;1.45;;;1.00;;
65558;SDS011;52203;51.998;5.140;2024-02-23T07:44:11;1.83;;;0.55;;
65558;SDS011;52203;51.998;5.140;2024-02-23T07:46:37;1.55;;;0.60;;
65558;SDS011;52203;51.998;5.140;2024-02-23T07:49:03;1.60;;;0.70;;
65558;SDS011;52203;51.998;5.140;2024-02-23T07:51:29;1.30;;;0.68;;
65558;SDS011;52203;51.998;5.140;2024-02-23T07:53:55;1.13;;;0.70;;
65558;SDS011;52203;51.998;5.140;2024-02-23T07:56:20;1.77;;;0.60;;
65558;SDS011;52203;51.998;5.140;2024-02-23T07:58:46;2.15;;;0.63;;
65558;SDS011;52203;51.998;5.140;2024-02-23T08:01:12;2.42;;;0.70;;
65558;SDS011;52203;51.998;5.140;2024-02-23T08:03:39;1.33;;;0.60;;
65558;SDS011;52203;51.998;5.140;2024-02-23T08:06:05;1.50;;;0.60;;
65558;SDS011;52203;51.998;5.140;2024-02-23T08:08:31;3.60;;;1.17;;
65558;SDS011;52203;51.998;5.140;2024-02-23T08:11:00;1.85;;;0.70;;
65558;SDS011;52203;51.998;5.140;2024-02-23T08:13:27;1.88;;;0.60;;
65558;SDS011;52203;51.998;5.140;2024-02-23T08:15:52;1.90;;;0.70;;
65558;SDS011;52203;51.998;5.140;2024-02-23T08:18:19;2.15;;;0.70;;
65558;SDS011;52203;51.998;5.140;2024-02-23T08:20:51;1.80;;;0.70;;
65558;SDS011;52203;51.998;5.140;2024-02-23T08:23:21;4.05;;;0.73;;
65558;SDS011;52203;51.998;5.140;2024-02-23T08:25:48;1.38;;;0.60;;
65558;SDS011;52203;51.998;5.140;2024-02-23T08:28:13;2.38;;;0.80;;
65558;SDS011;52203;51.998;5.140;2024-02-23T08:30:39;2.22;;;0.80;;
65558;SDS011;52203;51.998;5.140;2024-02-23T08:33:04;4.38;;;0.73;;
65558;SDS011;52203;51.998;5.140;2024-02-23T08:35:30;1.92;;;0.70;;
65558;SDS011;52203;51.998;5.140;2024-02-23T08:37:59;2.53;;;0.70;;
65558;SDS011;52203;51.998;5.140;2024-02-23T08:40:25;0.80;;;0.50;;
65558;SDS011;52203;51.998;5.140;2024-02-23T08:42:50;3.10;;;0.80;;
65558;SDS011;52203;51.998;5.140;2024-02-23T08:45:16;2.72;;;0.70;;
65558;SDS011;52203;51.998;5.140;2024-02-23T08:47:42;3.08;;;0.70;;
65558;SDS011;52203;51.998;5.140;2024-02-23T08:50:08;3.38;;;0.70;;
65558;SDS011;52203;51.998;5.140;2024-02-23T08:52:34;2.15;;;0.70;;
65558;SDS011;52203;51.998;5.140;2024-02-23T08:55:00;2.88;;;0.75;;
65558;SDS011;52203;51.998;5.140;2024-02-23T08:57:26;4.10;;;0.73;;
65558;SDS011;52203;51.998;5.140;2024-02-23T08:59:53;3.83;;;1.25;;
65558;SDS011;52203;51.998;5.140;2024-02-23T09:02:18;3.45;;;0.98;;
65558;SDS011;52203;51.998;5.140;2024-02-23T09:04:46;3.33;;;0.98;;
65558;SDS011;52203;51.998;5.140;2024-02-23T09:07:12;1.88;;;0.70;;
65558;SDS011;52203;51.998;5.140;2024-02-23T09:09:40;3.83;;;0.95;;
65558;SDS011;52203;51.998;5.140;2024-02-23T09:12:06;4.28;;;0.73;;
65558;SDS011;52203;51.998;5.140;2024-02-23T09:14:35;2.15;;;0.70;;
65558;SDS011;52203;51.998;5.140;2024-02-23T09:17:02;4.13;;;0.90;;
65558;SDS011;52203;51.998;5.140;2024-02-23T09:19:29;2.67;;;0.90;;
65558;SDS011;52203;51.998;5.140;2024-02-23T09:21:55;4.07;;;0.65;;
65558;SDS011;52203;51.998;5.140;2024-02-23T09:24:21;2.65;;;0.80;;
65558;SDS011;52203;51.998;5.140;2024-02-23T09:26:46;3.28;;;0.93;;
65558;SDS011;52203;51.998;5.140;2024-02-23T09:29:13;3.97;;;1.00;;
65558;SDS011;52203;51.998;5.140;2024-02-23T09:31:38;1.38;;;0.63;;
65558;SDS011;52203;51.998;5.140;2024-02-23T09:34:04;2.50;;;0.80;;
65558;SDS011;52203;51.998;5.140;2024-02-23T09:36:29;2.60;;;0.80;;
65558;SDS011;52203;51.998;5.140;2024-02-23T09:38:55;2.15;;;0.95;;
65558;SDS011;52203;51.998;5.140;2024-02-23T09:41:21;2.85;;;0.60;;
65558;SDS011;52203;51.998;5.140;2024-02-23T09:43:49;3.97;;;0.93;;
65558;SDS011;52203;51.998;5.140;2024-02-23T09:46:16;2.58;;;0.80;;
65558;SDS011;52203;51.998;5.140;2024-02-23T09:48:44;2.67;;;0.85;;
65558;SDS011;52203;51.998;5.140;2024-02-23T09:51:11;1.77;;;0.80;;
65558;SDS011;52203;51.998;5.140;2024-02-23T09:53:38;1.90;;;0.70;;
65558;SDS011;52203;51.998;5.140;2024-02-23T09:56:04;3.33;;;1.17;;
65558;SDS011;52203;51.998;5.140;2024-02-23T09:58:31;1.23;;;0.70;;
65558;SDS011;52203;51.998;5.140;2024-02-23T10:00:58;2.25;;;0.80;;
65558;SDS011;52203;51.998;5.140;2024-02-23T10:03:25;2.47;;;0.80;;
65558;SDS011;52203;51.998;5.140;2024-02-23T10:05:53;2.45;;;0.98;;
65558;SDS011;52203;51.998;5.140;2024-02-23T10:08:19;4.07;;;0.95;;
65558;SDS011;52203;51.998;5.140;2024-02-23T10:10:45;1.95;;;0.60;;
65558;SDS011;52203;51.998;5.140;2024-02-23T10:13:12;2.58;;;1.10;;
65558;SDS011;52203;51.998;5.140;2024-02-23T10:15:37;2.30;;;0.90;;
65558;SDS011;52203;51.998;5.140;2024-02-23T10:18:04;3.72;;;0.80;;
65558;SDS011;52203;51.998;5.140;2024-02-23T10:20:30;2.72;;;0.80;;
65558;SDS011;52203;51.998;5.140;2024-02-23T10:22:56;1.95;;;0.70;;
65558;SDS011;52203;51.998;5.140;2024-02-23T10:25:22;2.72;;;0.93;;
65558;SDS011;52203;51.998;5.140;2024-02-23T10:27:47;4.10;;;0.77;;
65558;SDS011;52203;51.998;5.140;2024-02-23T10:30:13;1.55;;;0.70;;
65558;SDS011;52203;51.998;5.140;2024-02-23T10:32:42;2.85;;;0.73;;
65558;SDS011;52203;51.998;5.140;2024-02-23T10:35:14;3.17;;;0.80;;
65558;SDS011;52203;51.998;5.140;2024-02-23T10:37:42;1.88;;;0.88;;
65558;SDS011;52203;51.998;5.140;2024-02-23T10:40:11;2.03;;;0.70;;
65558;SDS011;52203;51.998;5.140;2024-02-23T10:42:38;2.10;;;0.85;;
65558;SDS011;52203;51.998;5.140;2024-02-23T10:45:07;3.08;;;0.85;;
65558;SDS011;52203;51.998;5.140;2024-02-23T10:47:34;4.43;;;1.00;;
65558;SDS011;52203;51.998;5.140;2024-02-23T10:50:01;2.80;;;1.00;;
65558;SDS011;52203;51.998;5.140;2024-02-23T10:52:27;3.15;;;0.90;;
65558;SDS011;52203;51.998;5.140;2024-02-23T10:54:56;1.52;;;0.77;;
65558;SDS011;52203;51.998;5.140;2024-02-23T10:57:25;2.72;;;1.08;;
65558;SDS011;52203;51.998;5.140;2024-02-23T10:59:51;3.35;;;1.00;;
65558;SDS011;52203;51.998;5.140;2024-02-23T11:02:18;2.30;;;1.30;;
65558;SDS011;52203;51.998;5.140;2024-02-23T11:04:46;3.10;;;0.90;;
65558;SDS011;52203;51.998;5.140;2024-02-23T11:07:16;3.58;;;1.00;;
65558;SDS011;52203;51.998;5.140;2024-02-23T11:09:48;1.63;;;0.85;;
65558;SDS011;52203;51.998;5.140;2024-02-23T11:12:23;2.67;;;1.10;;
65558;SDS011;52203;51.998;5.140;2024-02-23T11:14:58;2.13;;;0.93;;
65558;SDS011;52203;51.998;5.140;2024-02-23T11:17:32;2.67;;;1.00;;
65558;SDS011;52203;51.998;5.140;2024-02-23T11:20:03;3.17;;;0.90;;
65558;SDS011;52203;51.998;5.140;2024-02-23T11:22:30;2.55;;;1.05;;
65558;SDS011;52203;51.998;5.140;2024-02-23T11:25:01;1.55;;;0.90;;
65558;SDS011;52203;51.998;5.140;2024-02-23T11:27:32;2.80;;;1.27;;
65558;SDS011;52203;51.998;5.140;2024-02-23T11:29:59;4.93;;;1.40;;
65558;SDS011;52203;51.998;5.140;2024-02-23T11:32:35;2.97;;;0.90;;
65558;SDS011;52203;51.998;5.140;2024-02-23T11:35:06;2.33;;;1.00;;
65558;SDS011;52203;51.998;5.140;2024-02-23T11:37:43;3.38;;;1.10;;
65558;SDS011;52203;51.998;5.140;2024-02-23T11:40:30;2.17;;;1.10;;
65558;SDS011;52203;51.998;5.140;2024-02-23T11:42:57;2.58;;;0.93;;
65558;SDS011;52203;51.998;5.140;2024-02-23T11:45:28;3.30;;;1.08;;
65558;SDS011;52203;51.998;5.140;2024-02-23T11:47:55;4.35;;;1.27;;
65558;SDS011;52203;51.998;5.140;2024-02-23T11:50:21;3.13;;;0.93;;
65558;SDS011;52203;51.998;5.140;2024-02-23T11:52:46;4.30;;;1.40;;
65558;SDS011;52203;51.998;5.140;2024-02-23T11:55:12;2.35;;;1.10;;
65558;SDS011;52203;51.998;5.140;2024-02-23T11:57:44;2.15;;;1.10;;
65558;SDS011;52203;51.998;5.140;2024-02-23T12:00:10;2.47;;;1.10;;
65558;SDS011;52203;51.998;5.140;2024-02-23T12:02:36;3.33;;;1.10;;
65558;SDS011;52203;51.998;5.140;2024-02-23T12:05:02;1.85;;;1.10;;
65558;SDS011;52203;51.998;5.140;2024-02-23T12:07:31;3.20;;;1.10;;
65558;SDS011;52203;51.998;5.140;2024-02-23T12:09:58;1.88;;;1.00;;
65558;SDS011;52203;51.998;5.140;2024-02-23T12:12:26;3.03;;;1.10;;
65558;SDS011;52203;51.998;5.140;2024-02-23T12:14:52;2.78;;;1.00;;
65558;SDS011;52203;51.998;5.140;2024-02-23T12:17:18;2.72;;;1.05;;
65558;SDS011;52203;51.998;5.140;2024-02-23T12:19:44;3.10;;;1.00;;
65558;SDS011;52203;51.998;5.140;2024-02-23T12:22:12;3.28;;;1.13;;
65558;SDS011;52203;51.998;5.140;2024-02-23T12:24:38;2.67;;;1.10;;
65558;SDS011;52203;51.998;5.140;2024-02-23T12:27:06;3.22;;;1.05;;
65558;SDS011;52203;51.998;5.140;2024-02-23T12:29:32;3.40;;;1.13;;
65558;SDS011;52203;51.998;5.140;2024-02-23T12:32:04;3.10;;;0.88;;
65558;SDS011;52203;51.998;5.140;2024-02-23T12:34:30;4.35;;;1.10;;
65558;SDS011;52203;51.998;5.140;2024-02-23T12:36:56;2.92;;;1.05;;
65558;SDS011;52203;51.998;5.140;2024-02-23T12:39:21;2.72;;;1.23;;
65558;SDS011;52203;51.998;5.140;2024-02-23T12:41:47;2.75;;;0.93;;
65558;SDS011;52203;51.998;5.140;2024-02-23T12:44:13;2.58;;;1.05;;
65558;SDS011;52203;51.998;5.140;2024-02-23T12:46:39;2.00;;;1.20;;
65558;SDS011;52203;51.998;5.140;2024-02-23T12:49:05;3.25;;;1.08;;
65558;SDS011;52203;51.998;5.140;2024-02-23T12:51:30;2.70;;;0.98;;
65558;SDS011;52203;51.998;5.140;2024-02-23T12:53:56;2.20;;;0.98;;
65558;SDS011;52203;51.998;5.140;2024-02-23T12:56:22;2.35;;;1.17;;
65558;SDS011;52203;51.998;5.140;2024-02-23T12:58:48;2.90;;;0.95;;
65558;SDS011;52203;51.998;5.140;2024-02-23T13:01:13;2.00;;;0.98;;
65558;SDS011;52203;51.998;5.140;2024-02-23T13:03:39;1.67;;;0.90;;
65558;SDS011;52203;51.998;5.140;2024-02-23T13:06:06;1.80;;;0.80;;
65558;SDS011;52203;51.998;5.140;2024-02-23T13:08:32;2.03;;;1.00;;
65558;SDS011;52203;51.998;5.140;2024-02-23T13:10:58;2.40;;;1.02;;
65558;SDS011;52203;51.998;5.140;2024-02-23T13:13:23;1.95;;;1.00;;
65558;SDS011;52203;51.998;5.140;2024-02-23T13:15:50;1.42;;;0.98;;
65558;SDS011;52203;51.998;5.140;2024-02-23T13:18:17;2.10;;;1.00;;
65558;SDS011;52203;51.998;5.140;2024-02-23T13:20:42;2.33;;;0.90;;
65558;SDS011;52203;51.998;5.140;2024-02-23T13:23:08;1.73;;;0.90;;
65558;SDS011;52203;51.998;5.140;2024-02-23T13:25:35;1.70;;;1.00;;
65558;SDS011;52203;51.998;5.140;2024-02-23T13:28:01;1.45;;;0.88;;
65558;SDS011;52203;51.998;5.140;2024-02-23T13:30:27;2.70;;;0.98;;
65558;SDS011;52203;51.998;5.140;2024-02-23T13:32:53;3.15;;;1.20;;
65558;SDS011;52203;51.998;5.140;2024-02-23T13:35:19;2.88;;;1.17;;
65558;SDS011;52203;51.998;5.140;2024-02-23T13:37:44;1.75;;;0.95;;
65558;SDS011;52203;51.998;5.140;2024-02-23T13:40:10;1.23;;;0.70;;
65558;SDS011;52203;51.998;5.140;2024-02-23T13:42:36;2.53;;;0.90;;
65558;SDS011;52203;51.998;5.140;2024-02-23T13:45:04;3.28;;;1.02;;
65558;SDS011;52203;51.998;5.140;2024-02-23T13:47:31;2.53;;;1.00;;
65558;SDS011;52203;51.998;5.140;2024-02-23T13:49:56;1.73;;;0.90;;
65558;SDS011;52203;51.998;5.140;2024-02-23T13:52:22;2.35;;;1.00;;
65558;SDS011;52203;51.998;5.140;2024-02-23T13:54:48;2.63;;;1.25;;
65558;SDS011;52203;51.998;5.140;2024-02-23T13:57:13;2.60;;;1.05;;
65558;SDS011;52203;51.998;5.140;2024-02-23T13:59:39;1.85;;;0.90;;
65558;SDS011;52203;51.998;5.140;2024-02-23T14:02:04;1.88;;;1.00;;
65558;SDS011;52203;51.998;5.140;2024-02-23T14:04:30;2.65;;;0.90;;
65558;SDS011;52203;51.998;5.140;2024-02-23T14:06:55;1.98;;;0.82;;
65558;SDS011;52203;51.998;5.140;2024-02-23T14:09:21;3.03;;;1.17;;
65558;SDS011;52203;51.998;5.140;2024-02-23T14:11:46;1.73;;;0.90;;
65558;SDS011;52203;51.998;5.140;2024-02-23T14:14:12;1.50;;;0.77;;
65558;SDS011;52203;51.998;5.140;2024-02-23T14:16:38;3.55;;;1.02;;
65558;SDS011;52203;51.998;5.140;2024-02-23T14:19:04;1.58;;;0.80;;
65558;SDS011;52203;51.998;5.140;2024-02-23T14:21:30;5.97;;;1.10;;
65558;SDS011;52203;51.998;5.140;2024-02-23T14:23:56;3.92;;;1.20;;
65558;SDS011;52203;51.998;5.140;2024-02-23T14:26:21;7.70;;;1.75;;
65558;SDS011;52203;51.998;5.140;2024-02-23T14:28:47;6.65;;;1.60;;
65558;SDS011;52203;51.998;5.140;2024-02-23T14:31:14;6.25;;;1.15;;
65558;SDS011;52203;51.998;5.140;2024-02-23T14:33:39;4.32;;;1.17;;
65558;SDS011;52203;51.998;5.140;2024-02-23T14:36:14;3.30;;;0.90;;
65558;SDS011;52203;51.998;5.140;2024-02-23T14:38:39;3.67;;;1.30;;
65558;SDS011;52203;51.998;5.140;2024-02-23T14:41:05;3.97;;;1.20;;
65558;SDS011;52203;51.998;5.140;2024-02-23T14:43:34;1.77;;;0.90;;